sensor_id;sensor_type;location;lat;lon;timestamp;pressure;altitude;pressure_sealevel;temperature;humidity
81151;BME280;70629;-26.026;27.976;2023-06-26T00:01:40;86815.72;;;7.87;67.15
81151;BME280;70629;-26.026;27.976;2023-06-26T00:04:09;86822.34;;;7.86;66.13
81151;BME280;70629;-26.026;27.976;2023-06-26T00:06:42;86819.44;;;7.61;67.69
81151;BME280;70629;-26.026;27.976;2023-06-26T00:09:12;86814.78;;;7.83;66.26
81151;BME280;70629;-26.026;27.976;2023-06-26T00:11:41;86821.94;;;7.90;66.35
81151;BME280;70629;-26.026;27.976;2023-06-26T00:14:10;86821.97;;;7.59;67.87
81151;BME280;70629;-26.026;27.976;2023-06-26T00:16:39;86826.22;;;7.00;69.24
81151;BME280;70629;-26.026;27.976;2023-06-26T00:19:08;86827.94;;;7.27;67.61
81151;BME280;70629;-26.026;27.976;2023-06-26T00:21:37;86822.34;;;7.44;67.21
81151;BME280;70629;-26.026;27.976;2023-06-26T00:24:06;86815.91;;;7.06;68.95
81151;BME280;70629;-26.026;27.976;2023-06-26T00:26:35;86813.56;;;7.01;68.92
81151;BME280;70629;-26.026;27.976;2023-06-26T00:29:04;86813.72;;;7.24;68.36
81151;BME280;70629;-26.026;27.976;2023-06-26T00:31:33;86813.81;;;7.36;68.35
81151;BME280;70629;-26.026;27.976;2023-06-26T00:34:04;86813.22;;;7.06;68.67
81151;BME280;70629;-26.026;27.976;2023-06-26T00:36:33;86812.75;;;6.89;69.84
81151;BME280;70629;-26.026;27.976;2023-06-26T00:39:02;86814.66;;;6.67;70.71
81151;BME280;70629;-26.026;27.976;2023-06-26T00:41:31;86815.91;;;7.06;68.69
81151;BME280;70629;-26.026;27.976;2023-06-26T00:44:01;86815.78;;;7.35;67.99
81151;BME280;70629;-26.026;27.976;2023-06-26T00:46:30;86814.69;;;7.29;67.75
81151;BME280;70629;-26.026;27.976;2023-06-26T00:49:02;86811.81;;;6.75;69.66
81151;BME280;70629;-26.026;27.976;2023-06-26T00:51:32;86814.75;;;7.19;68.28
81151;BME280;70629;-26.026;27.976;2023-06-26T00:54:01;86808.63;;;7.28;68.48
81151;BME280;70629;-26.026;27.976;2023-06-26T00:56:31;86815.00;;;7.23;68.39
81151;BME280;70629;-26.026;27.976;2023-06-26T00:59:01;86817.19;;;7.05;68.37
81151;BME280;70629;-26.026;27.976;2023-06-26T01:01:31;86812.00;;;6.67;69.42
81151;BME280;70629;-26.026;27.976;2023-06-26T01:04:00;86807.59;;;7.12;67.96
81151;BME280;70629;-26.026;27.976;2023-06-26T01:06:30;86804.09;;;7.31;67.76
81151;BME280;70629;-26.026;27.976;2023-06-26T01:09:00;86809.50;;;7.52;67.04
81151;BME280;70629;-26.026;27.976;2023-06-26T01:11:29;86802.03;;;7.50;67.22
81151;BME280;70629;-26.026;27.976;2023-06-26T01:14:00;86805.91;;;7.59;66.25
81151;BME280;70629;-26.026;27.976;2023-06-26T01:16:30;86802.81;;;7.63;66.35
81151;BME280;70629;-26.026;27.976;2023-06-26T01:19:00;86798.28;;;7.65;66.29
81151;BME280;70629;-26.026;27.976;2023-06-26T01:21:29;86803.00;;;7.55;66.30
81151;BME280;70629;-26.026;27.976;2023-06-26T01:24:16;86804.59;;;7.18;68.38
81151;BME280;70629;-26.026;27.976;2023-06-26T01:26:50;86805.91;;;7.38;66.78
81151;BME280;70629;-26.026;27.976;2023-06-26T01:29:21;86809.19;;;7.27;67.30
81151;BME280;70629;-26.026;27.976;2023-06-26T01:31:51;86795.91;;;7.38;67.37
81151;BME280;70629;-26.026;27.976;2023-06-26T01:34:21;86807.81;;;7.68;66.18
81151;BME280;70629;-26.026;27.976;2023-06-26T01:36:50;86800.13;;;7.63;67.00
81151;BME280;70629;-26.026;27.976;2023-06-26T01:39:19;86791.94;;;7.39;66.99
81151;BME280;70629;-26.026;27.976;2023-06-26T01:41:48;86792.59;;;7.28;67.23
81151;BME280;70629;-26.026;27.976;2023-06-26T01:44:26;86800.34;;;7.24;67.77
81151;BME280;70629;-26.026;27.976;2023-06-26T01:47:05;86797.81;;;7.26;67.25
81151;BME280;70629;-26.026;27.976;2023-06-26T01:50:00;86797.13;;;7.47;66.71
81151;BME280;70629;-26.026;27.976;2023-06-26T01:52:43;86797.47;;;7.11;67.66
81151;BME280;70629;-26.026;27.976;2023-06-26T01:57:59;86798.69;;;7.19;68.33
81151;BME280;70629;-26.026;27.976;2023-06-26T02:00:29;86802.66;;;6.87;68.50
81151;BME280;70629;-26.026;27.976;2023-06-26T02:02:58;86802.69;;;7.09;67.62
81151;BME280;70629;-26.026;27.976;2023-06-26T02:05:27;86790.88;;;7.33;67.45
81151;BME280;70629;-26.026;27.976;2023-06-26T02:07:58;86802.13;;;7.10;68.12
81151;BME280;70629;-26.026;27.976;2023-06-26T02:10:30;86801.16;;;7.05;67.93
81151;BME280;70629;-26.026;27.976;2023-06-26T02:12:59;86798.44;;;7.15;67.58
81151;BME280;70629;-26.026;27.976;2023-06-26T02:15:28;86800.78;;;6.90;68.46
81151;BME280;70629;-26.026;27.976;2023-06-26T02:17:57;86799.69;;;6.83;69.66
81151;BME280;70629;-26.026;27.976;2023-06-26T02:20:26;86798.97;;;6.83;70.04
81151;BME280;70629;-26.026;27.976;2023-06-26T02:22:55;86798.34;;;6.73;69.41
81151;BME280;70629;-26.026;27.976;2023-06-26T02:25:24;86802.44;;;7.26;67.42
81151;BME280;70629;-26.026;27.976;2023-06-26T02:27:53;86804.50;;;7.37;67.71
81151;BME280;70629;-26.026;27.976;2023-06-26T02:30:22;86805.88;;;7.47;67.07
81151;BME280;70629;-26.026;27.976;2023-06-26T02:32:51;86804.19;;;7.12;67.68
81151;BME280;70629;-26.026;27.976;2023-06-26T02:35:20;86797.34;;;7.30;67.82
81151;BME280;70629;-26.026;27.976;2023-06-26T02:37:49;86804.03;;;7.19;67.90
81151;BME280;70629;-26.026;27.976;2023-06-26T02:40:18;86803.84;;;7.27;67.33
81151;BME280;70629;-26.026;27.976;2023-06-26T02:42:47;86806.25;;;7.01;68.55
81151;BME280;70629;-26.026;27.976;2023-06-26T02:45:16;86815.06;;;6.73;69.45
81151;BME280;70629;-26.026;27.976;2023-06-26T02:47:45;86820.81;;;6.79;69.07
81151;BME280;70629;-26.026;27.976;2023-06-26T02:50:14;86817.78;;;6.94;68.39
81151;BME280;70629;-26.026;27.976;2023-06-26T02:52:43;86823.44;;;6.48;70.36
81151;BME280;70629;-26.026;27.976;2023-06-26T02:55:12;86816.66;;;6.57;69.25
81151;BME280;70629;-26.026;27.976;2023-06-26T02:57:42;86822.19;;;6.90;69.09
81151;BME280;70629;-26.026;27.976;2023-06-26T03:00:11;86819.88;;;6.55;70.50
81151;BME280;70629;-26.026;27.976;2023-06-26T03:02:40;86820.19;;;6.50;70.65
81151;BME280;70629;-26.026;27.976;2023-06-26T03:05:09;86813.75;;;6.84;69.80
81151;BME280;70629;-26.026;27.976;2023-06-26T03:07:38;86814.81;;;7.00;68.57
81151;BME280;70629;-26.026;27.976;2023-06-26T03:10:07;86819.06;;;6.93;69.34
81151;BME280;70629;-26.026;27.976;2023-06-26T03:12:36;86816.75;;;7.09;68.04
81151;BME280;70629;-26.026;27.976;2023-06-26T03:15:06;86812.28;;;7.02;68.26
81151;BME280;70629;-26.026;27.976;2023-06-26T03:17:35;86825.25;;;6.96;68.42
81151;BME280;70629;-26.026;27.976;2023-06-26T03:20:04;86815.53;;;7.00;69.57
81151;BME280;70629;-26.026;27.976;2023-06-26T03:22:35;86818.75;;;6.99;68.87
81151;BME280;70629;-26.026;27.976;2023-06-26T03:25:04;86818.47;;;7.04;68.93
81151;BME280;70629;-26.026;27.976;2023-06-26T03:27:34;86814.66;;;7.07;68.33
81151;BME280;70629;-26.026;27.976;2023-06-26T03:30:03;86812.06;;;6.79;70.17
81151;BME280;70629;-26.026;27.976;2023-06-26T03:32:33;86815.59;;;6.81;69.26
81151;BME280;70629;-26.026;27.976;2023-06-26T03:35:02;86820.63;;;6.96;68.85
81151;BME280;70629;-26.026;27.976;2023-06-26T03:37:33;86823.72;;;6.93;69.21
81151;BME280;70629;-26.026;27.976;2023-06-26T03:40:02;86823.09;;;7.04;69.30
81151;BME280;70629;-26.026;27.976;2023-06-26T03:42:33;86833.88;;;6.85;70.10
81151;BME280;70629;-26.026;27.976;2023-06-26T03:45:02;86830.38;;;6.82;70.00
81151;BME280;70629;-26.026;27.976;2023-06-26T03:47:31;86832.66;;;6.67;70.63
81151;BME280;70629;-26.026;27.976;2023-06-26T03:50:00;86832.41;;;7.03;69.42
81151;BME280;70629;-26.026;27.976;2023-06-26T03:52:29;86834.25;;;7.00;69.21
81151;BME280;70629;-26.026;27.976;2023-06-26T03:55:00;86845.94;;;6.95;69.28
81151;BME280;70629;-26.026;27.976;2023-06-26T03:57:29;86843.78;;;7.03;69.58
81151;BME280;70629;-26.026;27.976;2023-06-26T03:59:58;86851.19;;;6.74;70.27
81151;BME280;70629;-26.026;27.976;2023-06-26T04:02:27;86847.75;;;6.93;70.61
81151;BME280;70629;-26.026;27.976;2023-06-26T04:04:56;86857.22;;;6.84;70.06
81151;BME280;70629;-26.026;27.976;2023-06-26T04:07:25;86856.16;;;6.68;70.10
81151;BME280;70629;-26.026;27.976;2023-06-26T04:09:57;86848.00;;;6.66;71.29
81151;BME280;70629;-26.026;27.976;2023-06-26T04:12:27;86863.56;;;6.79;69.81
81151;BME280;70629;-26.026;27.976;2023-06-26T04:14:56;86861.63;;;6.70;70.77
81151;BME280;70629;-26.026;27.976;2023-06-26T04:17:25;86865.56;;;6.59;70.39
81151;BME280;70629;-26.026;27.976;2023-06-26T04:19:54;86876.19;;;6.88;70.57
81151;BME280;70629;-26.026;27.976;2023-06-26T04:22:23;86874.94;;;6.89;70.22
81151;BME280;70629;-26.026;27.976;2023-06-26T04:24:53;86880.22;;;6.68;71.26
81151;BME280;70629;-26.026;27.976;2023-06-26T04:27:23;86877.41;;;6.56;69.39
81151;BME280;70629;-26.026;27.976;2023-06-26T04:29:52;86869.38;;;6.66;70.11
81151;BME280;70629;-26.026;27.976;2023-06-26T04:32:21;86873.47;;;6.57;71.33
81151;BME280;70629;-26.026;27.976;2023-06-26T04:34:50;86877.16;;;6.24;72.15
81151;BME280;70629;-26.026;27.976;2023-06-26T04:37:19;86878.56;;;6.05;72.33
81151;BME280;70629;-26.026;27.976;2023-06-26T04:39:48;86884.34;;;6.31;71.69
81151;BME280;70629;-26.026;27.976;2023-06-26T04:42:18;86878.56;;;6.44;71.83
81151;BME280;70629;-26.026;27.976;2023-06-26T04:44:50;86884.03;;;6.07;71.77
81151;BME280;70629;-26.026;27.976;2023-06-26T04:47:20;86886.38;;;5.84;72.73
81151;BME280;70629;-26.026;27.976;2023-06-26T04:49:49;86884.84;;;5.81;73.71
81151;BME280;70629;-26.026;27.976;2023-06-26T04:52:18;86891.44;;;5.80;72.79
81151;BME280;70629;-26.026;27.976;2023-06-26T04:54:47;86895.00;;;5.92;72.96
81151;BME280;70629;-26.026;27.976;2023-06-26T04:57:16;86887.28;;;5.96;72.66
81151;BME280;70629;-26.026;27.976;2023-06-26T04:59:46;86885.16;;;6.14;72.90
81151;BME280;70629;-26.026;27.976;2023-06-26T05:02:15;86891.78;;;6.13;73.30
81151;BME280;70629;-26.026;27.976;2023-06-26T05:04:44;86892.03;;;6.07;73.21
81151;BME280;70629;-26.026;27.976;2023-06-26T05:07:14;86890.78;;;6.47;71.28
81151;BME280;70629;-26.026;27.976;2023-06-26T05:09:44;86893.88;;;6.53;72.06
81151;BME280;70629;-26.026;27.976;2023-06-26T05:12:13;86901.44;;;5.89;73.88
81151;BME280;70629;-26.026;27.976;2023-06-26T05:14:42;86901.47;;;6.08;73.52
81151;BME280;70629;-26.026;27.976;2023-06-26T05:17:13;86908.91;;;5.91;74.33
81151;BME280;70629;-26.026;27.976;2023-06-26T05:19:42;86904.41;;;6.03;73.61
81151;BME280;70629;-26.026;27.976;2023-06-26T05:22:13;86907.78;;;6.13;73.42
81151;BME280;70629;-26.026;27.976;2023-06-26T05:24:46;86902.19;;;6.18;72.21
81151;BME280;70629;-26.026;27.976;2023-06-26T05:27:16;86902.44;;;6.32;72.80
81151;BME280;70629;-26.026;27.976;2023-06-26T05:29:50;86912.94;;;5.82;75.18
81151;BME280;70629;-26.026;27.976;2023-06-26T05:32:19;86917.22;;;6.14;73.66
81151;BME280;70629;-26.026;27.976;2023-06-26T05:34:49;86924.09;;;6.07;74.57
81151;BME280;70629;-26.026;27.976;2023-06-26T05:37:22;86920.75;;;6.16;74.24
81151;BME280;70629;-26.026;27.976;2023-06-26T05:39:51;86919.97;;;6.83;70.78
81151;BME280;70629;-26.026;27.976;2023-06-26T05:42:20;86925.94;;;6.53;72.76
81151;BME280;70629;-26.026;27.976;2023-06-26T05:44:49;86933.78;;;6.60;73.41
81151;BME280;70629;-26.026;27.976;2023-06-26T05:47:18;86930.25;;;6.87;71.15
81151;BME280;70629;-26.026;27.976;2023-06-26T05:49:47;86936.41;;;7.09;70.50
81151;BME280;70629;-26.026;27.976;2023-06-26T05:52:16;86942.19;;;6.95;71.62
81151;BME280;70629;-26.026;27.976;2023-06-26T05:54:46;86932.56;;;7.21;71.39
81151;BME280;70629;-26.026;27.976;2023-06-26T05:57:16;86940.22;;;6.96;73.17
81151;BME280;70629;-26.026;27.976;2023-06-26T05:59:46;86937.53;;;7.46;70.26
81151;BME280;70629;-26.026;27.976;2023-06-26T06:02:16;86930.66;;;7.74;69.40
81151;BME280;70629;-26.026;27.976;2023-06-26T06:04:45;86935.31;;;7.42;71.87
81151;BME280;70629;-26.026;27.976;2023-06-26T06:07:14;86941.38;;;7.43;72.71
81151;BME280;70629;-26.026;27.976;2023-06-26T06:09:43;86938.25;;;7.77;70.13
81151;BME280;70629;-26.026;27.976;2023-06-26T06:12:12;86934.81;;;7.86;70.97
81151;BME280;70629;-26.026;27.976;2023-06-26T06:14:42;86931.91;;;8.04;70.09
81151;BME280;70629;-26.026;27.976;2023-06-26T06:17:11;86925.41;;;8.07;69.47
81151;BME280;70629;-26.026;27.976;2023-06-26T06:19:40;86932.22;;;8.19;69.55
81151;BME280;70629;-26.026;27.976;2023-06-26T06:22:09;86925.56;;;8.30;69.97
81151;BME280;70629;-26.026;27.976;2023-06-26T06:24:39;86926.78;;;8.38;69.14
81151;BME280;70629;-26.026;27.976;2023-06-26T06:27:08;86936.22;;;8.61;68.65
81151;BME280;70629;-26.026;27.976;2023-06-26T06:29:37;86938.81;;;8.70;68.95
81151;BME280;70629;-26.026;27.976;2023-06-26T06:32:07;86940.41;;;8.85;69.38
81151;BME280;70629;-26.026;27.976;2023-06-26T06:34:36;86936.31;;;8.84;69.67
81151;BME280;70629;-26.026;27.976;2023-06-26T06:37:05;86940.59;;;9.10;68.42
81151;BME280;70629;-26.026;27.976;2023-06-26T06:39:34;86938.50;;;9.20;67.30
81151;BME280;70629;-26.026;27.976;2023-06-26T06:42:04;86936.25;;;9.50;67.66
81151;BME280;70629;-26.026;27.976;2023-06-26T06:44:33;86933.91;;;9.56;67.01
81151;BME280;70629;-26.026;27.976;2023-06-26T06:47:02;86932.16;;;9.72;66.27
81151;BME280;70629;-26.026;27.976;2023-06-26T06:49:31;86931.81;;;9.78;65.57
81151;BME280;70629;-26.026;27.976;2023-06-26T06:52:00;86931.09;;;9.89;65.76
81151;BME280;70629;-26.026;27.976;2023-06-26T06:54:30;86941.38;;;10.04;66.09
81151;BME280;70629;-26.026;27.976;2023-06-26T06:56:59;86939.28;;;10.14;65.31
81151;BME280;70629;-26.026;27.976;2023-06-26T06:59:28;86936.75;;;10.16;65.68
81151;BME280;70629;-26.026;27.976;2023-06-26T07:01:57;86942.78;;;10.40;64.86
81151;BME280;70629;-26.026;27.976;2023-06-26T07:04:27;86940.63;;;10.62;60.81
81151;BME280;70629;-26.026;27.976;2023-06-26T07:06:56;86934.88;;;11.04;57.45
81151;BME280;70629;-26.026;27.976;2023-06-26T07:09:25;86939.28;;;11.11;58.75
81151;BME280;70629;-26.026;27.976;2023-06-26T07:11:54;86939.56;;;11.04;59.88
81151;BME280;70629;-26.026;27.976;2023-06-26T07:14:23;86938.28;;;11.30;57.60
81151;BME280;70629;-26.026;27.976;2023-06-26T07:16:52;86942.03;;;11.50;59.03
81151;BME280;70629;-26.026;27.976;2023-06-26T07:19:21;86944.50;;;12.51;54.69
81151;BME280;70629;-26.026;27.976;2023-06-26T07:21:51;86946.06;;;12.02;54.88
81151;BME280;70629;-26.026;27.976;2023-06-26T07:24:20;86946.94;;;11.79;57.06
81151;BME280;70629;-26.026;27.976;2023-06-26T07:26:49;86942.13;;;11.77;56.32
81151;BME280;70629;-26.026;27.976;2023-06-26T07:29:17;86949.34;;;11.61;56.64
81151;BME280;70629;-26.026;27.976;2023-06-26T07:31:47;86943.75;;;11.96;55.54
81151;BME280;70629;-26.026;27.976;2023-06-26T07:34:16;86944.75;;;11.89;56.28
81151;BME280;70629;-26.026;27.976;2023-06-26T07:36:45;86941.78;;;12.10;56.66
81151;BME280;70629;-26.026;27.976;2023-06-26T07:39:15;86939.59;;;12.34;54.94
81151;BME280;70629;-26.026;27.976;2023-06-26T07:41:50;86934.44;;;12.38;54.69
81151;BME280;70629;-26.026;27.976;2023-06-26T07:44:20;86940.78;;;12.72;52.33
81151;BME280;70629;-26.026;27.976;2023-06-26T07:46:49;86940.38;;;12.77;53.56
81151;BME280;70629;-26.026;27.976;2023-06-26T07:49:18;86930.94;;;12.92;52.05
81151;BME280;70629;-26.026;27.976;2023-06-26T07:51:47;86933.88;;;12.83;54.03
81151;BME280;70629;-26.026;27.976;2023-06-26T07:54:16;86933.06;;;12.94;52.44
81151;BME280;70629;-26.026;27.976;2023-06-26T07:56:58;86931.72;;;13.08;51.93
81151;BME280;70629;-26.026;27.976;2023-06-26T07:59:29;86925.56;;;13.35;50.93
81151;BME280;70629;-26.026;27.976;2023-06-26T08:01:59;86929.44;;;13.46;50.36
81151;BME280;70629;-26.026;27.976;2023-06-26T08:04:29;86931.56;;;13.63;47.62
81151;BME280;70629;-26.026;27.976;2023-06-26T08:07:01;86925.06;;;13.84;47.68
81151;BME280;70629;-26.026;27.976;2023-06-26T08:09:32;86919.28;;;13.91;47.90
81151;BME280;70629;-26.026;27.976;2023-06-26T08:12:02;86924.97;;;14.13;46.34
81151;BME280;70629;-26.026;27.976;2023-06-26T08:14:31;86923.22;;;14.20;46.73
81151;BME280;70629;-26.026;27.976;2023-06-26T08:17:00;86928.03;;;14.37;46.40
81151;BME280;70629;-26.026;27.976;2023-06-26T08:19:30;86927.78;;;14.31;46.58
81151;BME280;70629;-26.026;27.976;2023-06-26T08:21:59;86925.50;;;14.25;47.49
81151;BME280;70629;-26.026;27.976;2023-06-26T08:24:28;86924.44;;;14.48;44.68
81151;BME280;70629;-26.026;27.976;2023-06-26T08:26:57;86918.78;;;14.58;45.57
81151;BME280;70629;-26.026;27.976;2023-06-26T08:29:27;86917.78;;;14.67;45.73
81151;BME280;70629;-26.026;27.976;2023-06-26T08:31:57;86909.56;;;14.65;45.59
81151;BME280;70629;-26.026;27.976;2023-06-26T08:34:26;86908.50;;;14.87;45.87
81151;BME280;70629;-26.026;27.976;2023-06-26T08:36:55;86912.78;;;15.10;41.38
81151;BME280;70629;-26.026;27.976;2023-06-26T08:39:24;86908.97;;;15.00;42.88
81151;BME280;70629;-26.026;27.976;2023-06-26T08:41:53;86903.34;;;15.11;42.39
81151;BME280;70629;-26.026;27.976;2023-06-26T08:44:23;86900.75;;;14.98;42.56
81151;BME280;70629;-26.026;27.976;2023-06-26T08:46:53;86904.81;;;15.32;42.25
81151;BME280;70629;-26.026;27.976;2023-06-26T08:49:29;86902.41;;;15.40;42.86
81151;BME280;70629;-26.026;27.976;2023-06-26T08:52:20;86902.75;;;15.48;42.06
81151;BME280;70629;-26.026;27.976;2023-06-26T08:54:56;86893.69;;;15.59;43.15
81151;BME280;70629;-26.026;27.976;2023-06-26T08:57:26;86890.97;;;15.42;43.04
81151;BME280;70629;-26.026;27.976;2023-06-26T08:59:57;86896.59;;;16.01;41.32
81151;BME280;70629;-26.026;27.976;2023-06-26T09:02:26;86891.19;;;15.83;40.05
81151;BME280;70629;-26.026;27.976;2023-06-26T09:04:56;86887.31;;;15.88;41.30
81151;BME280;70629;-26.026;27.976;2023-06-26T09:07:25;86878.59;;;16.09;40.31
81151;BME280;70629;-26.026;27.976;2023-06-26T09:09:55;86881.94;;;16.28;40.97
81151;BME280;70629;-26.026;27.976;2023-06-26T09:12:27;86871.97;;;16.34;41.55
81151;BME280;70629;-26.026;27.976;2023-06-26T09:14:56;86858.91;;;16.48;40.19
81151;BME280;70629;-26.026;27.976;2023-06-26T09:17:30;86862.59;;;16.77;40.39
81151;BME280;70629;-26.026;27.976;2023-06-26T09:20:01;86856.00;;;16.62;39.87
81151;BME280;70629;-26.026;27.976;2023-06-26T09:22:37;86857.31;;;16.81;38.99
81151;BME280;70629;-26.026;27.976;2023-06-26T09:25:08;86846.47;;;17.02;38.53
81151;BME280;70629;-26.026;27.976;2023-06-26T09:27:37;86844.88;;;17.17;38.62
81151;BME280;70629;-26.026;27.976;2023-06-26T09:30:07;86834.06;;;17.19;37.34
81151;BME280;70629;-26.026;27.976;2023-06-26T09:32:37;86827.69;;;17.32;39.69
81151;BME280;70629;-26.026;27.976;2023-06-26T09:35:06;86829.75;;;17.34;36.58
81151;BME280;70629;-26.026;27.976;2023-06-26T09:37:36;86822.84;;;17.52;36.11
81151;BME280;70629;-26.026;27.976;2023-06-26T09:40:05;86819.38;;;17.50;36.51
81151;BME280;70629;-26.026;27.976;2023-06-26T09:42:36;86821.34;;;17.93;35.70
81151;BME280;70629;-26.026;27.976;2023-06-26T09:45:06;86811.44;;;17.80;36.44
81151;BME280;70629;-26.026;27.976;2023-06-26T09:47:35;86803.44;;;18.10;36.35
81151;BME280;70629;-26.026;27.976;2023-06-26T09:50:04;86806.81;;;18.34;34.94
81151;BME280;70629;-26.026;27.976;2023-06-26T09:52:35;86805.00;;;18.42;34.89
81151;BME280;70629;-26.026;27.976;2023-06-26T09:55:10;86799.16;;;18.26;36.14
81151;BME280;70629;-26.026;27.976;2023-06-26T09:57:40;86790.38;;;18.56;36.78
81151;BME280;70629;-26.026;27.976;2023-06-26T10:00:12;86781.94;;;18.46;34.57
81151;BME280;70629;-26.026;27.976;2023-06-26T10:02:42;86785.09;;;18.36;33.98
81151;BME280;70629;-26.026;27.976;2023-06-26T10:05:13;86777.63;;;18.90;34.46
81151;BME280;70629;-26.026;27.976;2023-06-26T10:07:47;86773.13;;;19.01;32.85
81151;BME280;70629;-26.026;27.976;2023-06-26T10:10:17;86766.81;;;18.94;33.47
81151;BME280;70629;-26.026;27.976;2023-06-26T10:12:50;86769.50;;;19.50;32.97
81151;BME280;70629;-26.026;27.976;2023-06-26T10:15:21;86766.22;;;19.55;33.40
81151;BME280;70629;-26.026;27.976;2023-06-26T10:17:56;86752.34;;;19.15;32.41
81151;BME280;70629;-26.026;27.976;2023-06-26T10:20:27;86752.09;;;19.65;33.68
81151;BME280;70629;-26.026;27.976;2023-06-26T10:23:01;86755.16;;;19.49;33.80
81151;BME280;70629;-26.026;27.976;2023-06-26T10:25:32;86740.38;;;19.28;31.49
81151;BME280;70629;-26.026;27.976;2023-06-26T10:28:02;86739.81;;;19.34;32.51
81151;BME280;70629;-26.026;27.976;2023-06-26T10:30:36;86725.91;;;19.52;31.29
81151;BME280;70629;-26.026;27.976;2023-06-26T10:33:06;86724.25;;;19.41;32.36
81151;BME280;70629;-26.026;27.976;2023-06-26T10:35:44;86713.81;;;19.29;31.53
81151;BME280;70629;-26.026;27.976;2023-06-26T10:38:14;86707.81;;;19.37;30.13
81151;BME280;70629;-26.026;27.976;2023-06-26T10:40:45;86700.53;;;19.79;31.41
81151;BME280;70629;-26.026;27.976;2023-06-26T10:43:16;86694.66;;;19.93;31.15
81151;BME280;70629;-26.026;27.976;2023-06-26T10:45:49;86696.72;;;19.92;30.06
81151;BME280;70629;-26.026;27.976;2023-06-26T10:48:29;86694.31;;;19.75;29.93
81151;BME280;70629;-26.026;27.976;2023-06-26T10:51:14;86690.41;;;19.84;30.05
81151;BME280;70629;-26.026;27.976;2023-06-26T10:53:56;86684.34;;;20.25;30.15
81151;BME280;70629;-26.026;27.976;2023-06-26T10:56:44;86676.94;;;19.58;29.40
81151;BME280;70629;-26.026;27.976;2023-06-26T10:59:18;86668.69;;;19.90;30.44
81151;BME280;70629;-26.026;27.976;2023-06-26T11:02:02;86666.19;;;19.34;28.18
81151;BME280;70629;-26.026;27.976;2023-06-26T11:04:47;86660.50;;;19.56;27.70
81151;BME280;70629;-26.026;27.976;2023-06-26T11:07:25;86666.75;;;19.60;27.69
81151;BME280;70629;-26.026;27.976;2023-06-26T11:12:45;86634.78;;;20.01;28.81
81151;BME280;70629;-26.026;27.976;2023-06-26T11:15:19;86637.53;;;20.03;29.56
81151;BME280;70629;-26.026;27.976;2023-06-26T11:17:51;86645.03;;;20.40;27.98
81151;BME280;70629;-26.026;27.976;2023-06-26T11:20:21;86641.78;;;20.50;27.45
81151;BME280;70629;-26.026;27.976;2023-06-26T11:22:52;86634.75;;;20.37;26.66
81151;BME280;70629;-26.026;27.976;2023-06-26T11:25:25;86634.84;;;20.43;27.09
81151;BME280;70629;-26.026;27.976;2023-06-26T11:27:56;86632.47;;;19.87;25.99
81151;BME280;70629;-26.026;27.976;2023-06-26T11:30:29;86625.19;;;19.64;26.11
81151;BME280;70629;-26.026;27.976;2023-06-26T11:33:06;86623.31;;;20.08;26.73
81151;BME280;70629;-26.026;27.976;2023-06-26T11:35:36;86615.41;;;20.27;26.71
81151;BME280;70629;-26.026;27.976;2023-06-26T11:38:09;86616.59;;;20.15;26.28
81151;BME280;70629;-26.026;27.976;2023-06-26T11:40:39;86611.63;;;20.04;26.75
81151;BME280;70629;-26.026;27.976;2023-06-26T11:43:10;86612.69;;;19.89;27.29
81151;BME280;70629;-26.026;27.976;2023-06-26T11:45:39;86600.56;;;19.60;25.91
81151;BME280;70629;-26.026;27.976;2023-06-26T11:48:12;86600.25;;;20.17;28.09
81151;BME280;70629;-26.026;27.976;2023-06-26T11:50:42;86590.34;;;19.96;27.33
81151;BME280;70629;-26.026;27.976;2023-06-26T11:53:15;86597.03;;;19.89;28.01
81151;BME280;70629;-26.026;27.976;2023-06-26T11:55:46;86588.03;;;19.83;28.58
81151;BME280;70629;-26.026;27.976;2023-06-26T11:58:19;86587.13;;;19.70;27.21
81151;BME280;70629;-26.026;27.976;2023-06-26T12:00:48;86587.03;;;19.66;28.20
81151;BME280;70629;-26.026;27.976;2023-06-26T12:03:21;86581.50;;;19.62;27.79
81151;BME280;70629;-26.026;27.976;2023-06-26T12:05:50;86579.19;;;19.84;29.32
81151;BME280;70629;-26.026;27.976;2023-06-26T12:08:22;86583.22;;;19.81;29.06
81151;BME280;70629;-26.026;27.976;2023-06-26T12:10:53;86573.41;;;19.66;28.77
81151;BME280;70629;-26.026;27.976;2023-06-26T12:13:22;86578.84;;;19.66;29.50
81151;BME280;70629;-26.026;27.976;2023-06-26T12:15:53;86577.06;;;19.45;27.85
81151;BME280;70629;-26.026;27.976;2023-06-26T12:18:25;86574.34;;;19.45;27.32
81151;BME280;70629;-26.026;27.976;2023-06-26T12:20:55;86565.69;;;19.20;27.88
81151;BME280;70629;-26.026;27.976;2023-06-26T12:23:31;86572.84;;;19.38;29.72
81151;BME280;70629;-26.026;27.976;2023-06-26T12:26:18;86560.88;;;19.53;30.97
81151;BME280;70629;-26.026;27.976;2023-06-26T12:28:49;86566.53;;;19.29;27.91
81151;BME280;70629;-26.026;27.976;2023-06-26T12:31:21;86553.25;;;19.13;27.46
81151;BME280;70629;-26.026;27.976;2023-06-26T12:33:52;86561.56;;;19.19;27.77
81151;BME280;70629;-26.026;27.976;2023-06-26T12:36:23;86561.38;;;19.09;27.25
81151;BME280;70629;-26.026;27.976;2023-06-26T12:38:54;86560.91;;;18.87;28.21
81151;BME280;70629;-26.026;27.976;2023-06-26T12:41:24;86562.75;;;19.10;28.61
81151;BME280;70629;-26.026;27.976;2023-06-26T12:43:57;86557.50;;;19.20;27.92
81151;BME280;70629;-26.026;27.976;2023-06-26T12:46:34;86557.13;;;19.36;28.88
81151;BME280;70629;-26.026;27.976;2023-06-26T12:49:06;86555.53;;;18.91;28.11
81151;BME280;70629;-26.026;27.976;2023-06-26T12:52:00;86556.06;;;19.17;28.02
81151;BME280;70629;-26.026;27.976;2023-06-26T12:54:30;86556.72;;;19.16;29.12
81151;BME280;70629;-26.026;27.976;2023-06-26T12:57:00;86562.41;;;18.94;29.59
81151;BME280;70629;-26.026;27.976;2023-06-26T12:59:37;86556.88;;;18.90;27.28
81151;BME280;70629;-26.026;27.976;2023-06-26T13:02:08;86548.38;;;18.74;27.62
81151;BME280;70629;-26.026;27.976;2023-06-26T13:04:38;86548.47;;;18.80;27.17
81151;BME280;70629;-26.026;27.976;2023-06-26T13:07:15;86554.00;;;18.82;28.32
81151;BME280;70629;-26.026;27.976;2023-06-26T13:09:47;86546.53;;;18.84;28.38